sensor_id;sensor_type;location;lat;lon;timestamp;pressure;altitude;pressure_sealevel;temperature;humidity
75013;BME280;63567;49.956;20.130;2023-09-07T00:01:42;97892.59;;;17.65;59.26
75013;BME280;63567;49.956;20.130;2023-09-07T00:04:07;97895.47;;;17.64;59.17
75013;BME280;63567;49.956;20.130;2023-09-07T00:06:33;97887.91;;;17.61;59.25
75013;BME280;63567;49.956;20.130;2023-09-07T00:08:59;97892.41;;;17.60;59.52
75013;BME280;63567;49.956;20.130;2023-09-07T00:11:24;97896.31;;;17.58;59.30
75013;BME280;63567;49.956;20.130;2023-09-07T00:13:50;97895.72;;;17.56;59.81
75013;BME280;63567;49.956;20.130;2023-09-07T00:16:16;97892.44;;;17.54;59.49
75013;BME280;63567;49.956;20.130;2023-09-07T00:18:41;97888.34;;;17.51;59.53
75013;BME280;63567;49.956;20.130;2023-09-07T00:21:06;97890.63;;;17.48;59.69
75013;BME280;63567;49.956;20.130;2023-09-07T00:23:31;97881.19;;;17.45;59.90
75013;BME280;63567;49.956;20.130;2023-09-07T00:25:57;97880.59;;;17.43;60.03
75013;BME280;63567;49.956;20.130;2023-09-07T00:28:22;97884.31;;;17.42;60.12
75013;BME280;63567;49.956;20.130;2023-09-07T00:30:47;97888.22;;;17.39;59.98
75013;BME280;63567;49.956;20.130;2023-09-07T00:33:13;97889.41;;;17.37;60.37
75013;BME280;63567;49.956;20.130;2023-09-07T00:35:38;97893.94;;;17.36;60.21
75013;BME280;63567;49.956;20.130;2023-09-07T00:38:03;97894.38;;;17.33;60.13
75013;BME280;63567;49.956;20.130;2023-09-07T00:40:29;97892.09;;;17.30;59.93
75013;BME280;63567;49.956;20.130;2023-09-07T00:42:54;97900.09;;;17.30;60.20
75013;BME280;63567;49.956;20.130;2023-09-07T00:45:20;97898.47;;;17.29;60.44
75013;BME280;63567;49.956;20.130;2023-09-07T00:47:45;97892.75;;;17.25;60.41
75013;BME280;63567;49.956;20.130;2023-09-07T00:50:10;97903.63;;;17.24;60.43
75013;BME280;63567;49.956;20.130;2023-09-07T00:52:40;97892.38;;;17.22;60.40
75013;BME280;63567;49.956;20.130;2023-09-07T00:55:07;97904.03;;;17.21;60.44
75013;BME280;63567;49.956;20.130;2023-09-07T00:57:33;97898.91;;;17.19;60.65
75013;BME280;63567;49.956;20.130;2023-09-07T00:59:58;97899.13;;;17.18;60.92
75013;BME280;63567;49.956;20.130;2023-09-07T01:02:24;97897.47;;;17.17;60.73
75013;BME280;63567;49.956;20.130;2023-09-07T01:04:50;97895.25;;;17.14;60.54
75013;BME280;63567;49.956;20.130;2023-09-07T01:07:20;97898.09;;;17.12;60.91
75013;BME280;63567;49.956;20.130;2023-09-07T01:09:52;97901.81;;;17.11;60.98
75013;BME280;63567;49.956;20.130;2023-09-07T01:12:17;97902.81;;;17.10;60.72
75013;BME280;63567;49.956;20.130;2023-09-07T01:14:43;97901.41;;;17.08;60.74
75013;BME280;63567;49.956;20.130;2023-09-07T01:17:09;97898.13;;;17.06;60.80
75013;BME280;63567;49.956;20.130;2023-09-07T01:19:36;97904.50;;;17.04;60.81
75013;BME280;63567;49.956;20.130;2023-09-07T01:22:01;97890.56;;;17.02;60.85
75013;BME280;63567;49.956;20.130;2023-09-07T01:24:27;97892.63;;;17.00;60.74
75013;BME280;63567;49.956;20.130;2023-09-07T01:26:55;97887.69;;;16.97;60.95
75013;BME280;63567;49.956;20.130;2023-09-07T01:29:21;97889.75;;;16.95;61.11
75013;BME280;63567;49.956;20.130;2023-09-07T01:31:47;97885.47;;;16.94;61.11
75013;BME280;63567;49.956;20.130;2023-09-07T01:34:13;97883.00;;;16.93;61.35
75013;BME280;63567;49.956;20.130;2023-09-07T01:36:38;97881.38;;;16.92;61.28
75013;BME280;63567;49.956;20.130;2023-09-07T01:39:04;97871.94;;;16.89;61.39
75013;BME280;63567;49.956;20.130;2023-09-07T01:41:30;97877.47;;;16.88;61.58
75013;BME280;63567;49.956;20.130;2023-09-07T01:43:56;97878.72;;;16.85;61.95
75013;BME280;63567;49.956;20.130;2023-09-07T01:46:21;97879.13;;;16.82;61.67
75013;BME280;63567;49.956;20.130;2023-09-07T01:48:46;97878.50;;;16.80;61.89
75013;BME280;63567;49.956;20.130;2023-09-07T01:51:12;97875.00;;;16.79;62.14
75013;BME280;63567;49.956;20.130;2023-09-07T01:53:37;97879.91;;;16.76;61.84
75013;BME280;63567;49.956;20.130;2023-09-07T01:56:02;97876.63;;;16.74;61.97
75013;BME280;63567;49.956;20.130;2023-09-07T01:58:28;97881.34;;;16.72;61.77
75013;BME280;63567;49.956;20.130;2023-09-07T02:00:57;97879.09;;;16.69;61.82
75013;BME280;63567;49.956;20.130;2023-09-07T02:03:23;97880.34;;;16.66;62.00
75013;BME280;63567;49.956;20.130;2023-09-07T02:05:48;97890.38;;;16.64;62.16
75013;BME280;63567;49.956;20.130;2023-09-07T02:08:13;97884.63;;;16.60;61.91
75013;BME280;63567;49.956;20.130;2023-09-07T02:10:38;97881.34;;;16.58;62.23
75013;BME280;63567;49.956;20.130;2023-09-07T02:13:04;97878.31;;;16.55;62.27
75013;BME280;63567;49.956;20.130;2023-09-07T02:15:29;97881.16;;;16.53;62.38
75013;BME280;63567;49.956;20.130;2023-09-07T02:17:55;97886.69;;;16.52;62.11
75013;BME280;63567;49.956;20.130;2023-09-07T02:20:20;97885.25;;;16.49;62.56
75013;BME280;63567;49.956;20.130;2023-09-07T02:22:45;97875.66;;;16.48;62.48
75013;BME280;63567;49.956;20.130;2023-09-07T02:25:11;97876.25;;;16.43;62.64
75013;BME280;63567;49.956;20.130;2023-09-07T02:27:36;97883.41;;;16.43;62.86
75013;BME280;63567;49.956;20.130;2023-09-07T02:30:05;97886.50;;;16.40;62.76
75013;BME280;63567;49.956;20.130;2023-09-07T02:32:31;97884.03;;;16.38;62.87
75013;BME280;63567;49.956;20.130;2023-09-07T02:34:57;97885.25;;;16.36;62.96
75013;BME280;63567;49.956;20.130;2023-09-07T02:37:22;97883.59;;;16.35;62.82
75013;BME280;63567;49.956;20.130;2023-09-07T02:39:48;97880.75;;;16.30;62.85
75013;BME280;63567;49.956;20.130;2023-09-07T02:42:13;97887.69;;;16.31;62.80
75013;BME280;63567;49.956;20.130;2023-09-07T02:44:38;97872.97;;;16.28;62.81
75013;BME280;63567;49.956;20.130;2023-09-07T02:47:04;97877.47;;;16.28;63.12
75013;BME280;63567;49.956;20.130;2023-09-07T02:49:29;97881.97;;;16.27;63.07
75013;BME280;63567;49.956;20.130;2023-09-07T02:51:55;97883.22;;;16.25;62.88
75013;BME280;63567;49.956;20.130;2023-09-07T02:54:20;97880.75;;;16.23;63.32
75013;BME280;63567;49.956;20.130;2023-09-07T02:56:45;97880.94;;;16.21;63.42
75013;BME280;63567;49.956;20.130;2023-09-07T02:59:10;97873.56;;;16.17;63.62
75013;BME280;63567;49.956;20.130;2023-09-07T03:01:38;97881.34;;;16.18;63.76
75013;BME280;63567;49.956;20.130;2023-09-07T03:04:04;97883.41;;;16.16;63.60
75013;BME280;63567;49.956;20.130;2023-09-07T03:06:29;97883.59;;;16.15;63.52
75013;BME280;63567;49.956;20.130;2023-09-07T03:08:55;97884.00;;;16.12;63.56
75013;BME280;63567;49.956;20.130;2023-09-07T03:11:22;97877.88;;;16.11;63.67
75013;BME280;63567;49.956;20.130;2023-09-07T03:13:47;97875.41;;;16.10;63.68
75013;BME280;63567;49.956;20.130;2023-09-07T03:16:12;97878.28;;;16.08;64.10
75013;BME280;63567;49.956;20.130;2023-09-07T03:18:37;97881.75;;;16.09;64.30
75013;BME280;63567;49.956;20.130;2023-09-07T03:21:03;97882.97;;;16.06;64.21
75013;BME280;63567;49.956;20.130;2023-09-07T03:23:29;97880.31;;;16.06;64.27
75013;BME280;63567;49.956;20.130;2023-09-07T03:25:56;97884.00;;;16.05;64.07
75013;BME280;63567;49.956;20.130;2023-09-07T03:28:21;97879.06;;;16.02;64.33
75013;BME280;63567;49.956;20.130;2023-09-07T03:30:46;97880.09;;;16.01;64.57
75013;BME280;63567;49.956;20.130;2023-09-07T03:33:12;97881.97;;;16.00;65.19
75013;BME280;63567;49.956;20.130;2023-09-07T03:35:37;97880.31;;;15.99;65.45
75013;BME280;63567;49.956;20.130;2023-09-07T03:38:03;97884.81;;;15.99;65.46
75013;BME280;63567;49.956;20.130;2023-09-07T03:40:28;97875.41;;;15.96;65.60
75013;BME280;63567;49.956;20.130;2023-09-07T03:42:54;97891.75;;;16.00;65.64
75013;BME280;63567;49.956;20.130;2023-09-07T03:45:19;97885.81;;;15.98;65.61
75013;BME280;63567;49.956;20.130;2023-09-07T03:47:44;97890.94;;;15.99;65.34
75013;BME280;63567;49.956;20.130;2023-09-07T03:50:09;97889.09;;;16.00;65.84
75013;BME280;63567;49.956;20.130;2023-09-07T03:52:35;97891.75;;;16.00;66.28
75013;BME280;63567;49.956;20.130;2023-09-07T03:55:00;97887.28;;;16.00;66.10
75013;BME280;63567;49.956;20.130;2023-09-07T03:57:26;97885.63;;;15.99;66.03
75013;BME280;63567;49.956;20.130;2023-09-07T03:59:52;97890.31;;;16.04;66.56
75013;BME280;63567;49.956;20.130;2023-09-07T04:02:18;97895.03;;;16.02;66.29
75013;BME280;63567;49.956;20.130;2023-09-07T04:04:47;97886.66;;;16.05;66.02
75013;BME280;63567;49.956;20.130;2023-09-07T04:07:13;97889.31;;;16.05;66.24
75013;BME280;63567;49.956;20.130;2023-09-07T04:09:38;97891.13;;;16.05;66.13
75013;BME280;63567;49.956;20.130;2023-09-07T04:12:03;97895.44;;;16.06;65.77
75013;BME280;63567;49.956;20.130;2023-09-07T04:14:29;97894.41;;;16.07;66.08
75013;BME280;63567;49.956;20.130;2023-09-07T04:16:55;97897.91;;;16.07;65.89
75013;BME280;63567;49.956;20.130;2023-09-07T04:19:20;97900.56;;;16.07;66.10
75013;BME280;63567;49.956;20.130;2023-09-07T04:21:45;97902.19;;;16.08;66.06
75013;BME280;63567;49.956;20.130;2023-09-07T04:24:11;97909.56;;;16.06;65.82
75013;BME280;63567;49.956;20.130;2023-09-07T04:26:37;97904.84;;;16.08;65.67
75013;BME280;63567;49.956;20.130;2023-09-07T04:29:03;97909.16;;;16.09;65.90
75013;BME280;63567;49.956;20.130;2023-09-07T04:31:28;97906.50;;;16.09;65.86
75013;BME280;63567;49.956;20.130;2023-09-07T04:33:53;97909.16;;;16.09;65.63
75013;BME280;63567;49.956;20.130;2023-09-07T04:36:19;97915.28;;;16.10;66.09
75013;BME280;63567;49.956;20.130;2023-09-07T04:38:44;97905.47;;;16.10;65.81
75013;BME280;63567;49.956;20.130;2023-09-07T04:41:11;97913.44;;;16.10;66.14
75013;BME280;63567;49.956;20.130;2023-09-07T04:43:37;97908.94;;;16.11;65.97
75013;BME280;63567;49.956;20.130;2023-09-07T04:46:05;97907.94;;;16.12;66.10
75013;BME280;63567;49.956;20.130;2023-09-07T04:48:31;97908.75;;;16.12;65.80
75013;BME280;63567;49.956;20.130;2023-09-07T04:51:00;97908.56;;;16.14;65.47
75013;BME280;63567;49.956;20.130;2023-09-07T04:53:28;97915.50;;;16.15;65.43
75013;BME280;63567;49.956;20.130;2023-09-07T04:55:53;97917.78;;;16.18;64.90
75013;BME280;63567;49.956;20.130;2023-09-07T04:58:19;97918.59;;;16.18;64.85
75013;BME280;63567;49.956;20.130;2023-09-07T05:00:44;97924.53;;;16.20;64.83
75013;BME280;63567;49.956;20.130;2023-09-07T05:03:09;97929.59;;;16.22;64.67
75013;BME280;63567;49.956;20.130;2023-09-07T05:05:34;97926.75;;;16.23;64.48
75013;BME280;63567;49.956;20.130;2023-09-07T05:07:59;97927.38;;;16.26;64.28
75013;BME280;63567;49.956;20.130;2023-09-07T05:10:25;97925.34;;;16.28;63.93
75013;BME280;63567;49.956;20.130;2023-09-07T05:12:50;97931.91;;;16.32;63.94
75013;BME280;63567;49.956;20.130;2023-09-07T05:15:15;97929.03;;;16.33;63.78
75013;BME280;63567;49.956;20.130;2023-09-07T05:17:40;97934.75;;;16.37;64.04
75013;BME280;63567;49.956;20.130;2023-09-07T05:20:06;97937.03;;;16.40;63.87
75013;BME280;63567;49.956;20.130;2023-09-07T05:22:32;97934.97;;;16.42;63.54
75013;BME280;63567;49.956;20.130;2023-09-07T05:25:01;97938.88;;;16.46;63.66
75013;BME280;63567;49.956;20.130;2023-09-07T05:27:27;97940.09;;;16.50;63.82
75013;BME280;63567;49.956;20.130;2023-09-07T05:29:52;97934.56;;;16.52;63.46
75013;BME280;63567;49.956;20.130;2023-09-07T05:32:17;97941.31;;;16.54;63.64
75013;BME280;63567;49.956;20.130;2023-09-07T05:34:42;97947.06;;;16.58;63.43
75013;BME280;63567;49.956;20.130;2023-09-07T05:37:08;97942.97;;;16.62;63.14
75013;BME280;63567;49.956;20.130;2023-09-07T05:39:33;97952.19;;;16.66;63.80
75013;BME280;63567;49.956;20.130;2023-09-07T05:41:58;97945.44;;;16.70;63.75
75013;BME280;63567;49.956;20.130;2023-09-07T05:44:23;97940.31;;;16.75;64.39
75013;BME280;63567;49.956;20.130;2023-09-07T05:46:49;97950.38;;;16.80;64.65
75013;BME280;63567;49.956;20.130;2023-09-07T05:49:14;97939.31;;;16.83;64.69
75013;BME280;63567;49.956;20.130;2023-09-07T05:51:39;97943.78;;;16.89;64.45
75013;BME280;63567;49.956;20.130;2023-09-07T05:54:04;97953.00;;;16.93;64.61
75013;BME280;63567;49.956;20.130;2023-09-07T05:56:30;97948.91;;;16.97;64.45
75013;BME280;63567;49.956;20.130;2023-09-07T05:58:58;97949.34;;;17.01;65.17
75013;BME280;63567;49.956;20.130;2023-09-07T06:01:23;97955.25;;;17.10;65.00
75013;BME280;63567;49.956;20.130;2023-09-07T06:03:48;97947.47;;;17.15;65.12
75013;BME280;63567;49.956;20.130;2023-09-07T06:06:13;97947.06;;;17.18;65.54
75013;BME280;63567;49.956;20.130;2023-09-07T06:08:39;97950.53;;;17.25;66.00
75013;BME280;63567;49.956;20.130;2023-09-07T06:11:04;97954.22;;;17.31;65.90
75013;BME280;63567;49.956;20.130;2023-09-07T06:13:30;97955.19;;;17.36;66.24
75013;BME280;63567;49.956;20.130;2023-09-07T06:15:56;97959.69;;;17.42;66.63
75013;BME280;63567;49.956;20.130;2023-09-07T06:18:21;97960.50;;;17.50;66.61
75013;BME280;63567;49.956;20.130;2023-09-07T06:20:46;97966.84;;;17.55;66.46
75013;BME280;63567;49.956;20.130;2023-09-07T06:23:12;97961.47;;;17.62;66.55
75013;BME280;63567;49.956;20.130;2023-09-07T06:25:37;97959.00;;;17.67;66.75
75013;BME280;63567;49.956;20.130;2023-09-07T06:28:03;97957.34;;;17.73;66.63
75013;BME280;63567;49.956;20.130;2023-09-07T06:30:28;97963.69;;;17.78;66.31
75013;BME280;63567;49.956;20.130;2023-09-07T06:32:53;97957.53;;;17.84;66.15
75013;BME280;63567;49.956;20.130;2023-09-07T06:35:19;97967.56;;;17.89;66.13
75013;BME280;63567;49.956;20.130;2023-09-07T06:37:44;97972.88;;;17.96;66.11
75013;BME280;63567;49.956;20.130;2023-09-07T06:40:10;97973.25;;;17.99;66.20
75013;BME280;63567;49.956;20.130;2023-09-07T06:42:36;97977.53;;;18.07;66.54
75013;BME280;63567;49.956;20.130;2023-09-07T06:45:01;97979.34;;;18.13;66.48
75013;BME280;63567;49.956;20.130;2023-09-07T06:47:27;97979.72;;;18.17;66.53
75013;BME280;63567;49.956;20.130;2023-09-07T06:49:53;97976.81;;;18.25;66.65
75013;BME280;63567;49.956;20.130;2023-09-07T06:52:19;97982.09;;;18.32;67.00
75013;BME280;63567;49.956;20.130;2023-09-07T06:54:44;97983.72;;;18.39;66.52
75013;BME280;63567;49.956;20.130;2023-09-07T06:57:09;97984.69;;;18.45;66.96
75013;BME280;63567;49.956;20.130;2023-09-07T06:59:34;97986.50;;;18.51;66.57
75013;BME280;63567;49.956;20.130;2023-09-07T07:02:00;97983.78;;;18.58;67.07
75013;BME280;63567;49.956;20.130;2023-09-07T07:04:26;97993.41;;;18.65;66.68
75013;BME280;63567;49.956;20.130;2023-09-07T07:06:51;97997.66;;;18.73;66.99
75013;BME280;63567;49.956;20.130;2023-09-07T07:09:16;97992.28;;;18.80;66.79
75013;BME280;63567;49.956;20.130;2023-09-07T07:11:42;98000.84;;;18.88;66.74
75013;BME280;63567;49.956;20.130;2023-09-07T07:14:08;98002.44;;;18.96;66.48
75013;BME280;63567;49.956;20.130;2023-09-07T07:16:34;97997.03;;;19.03;66.03
75013;BME280;63567;49.956;20.130;2023-09-07T07:18:59;98001.06;;;19.12;66.22
75013;BME280;63567;49.956;20.130;2023-09-07T07:21:24;98001.84;;;19.19;66.33
75013;BME280;63567;49.956;20.130;2023-09-07T07:23:50;98003.41;;;19.27;66.17
75013;BME280;63567;49.956;20.130;2023-09-07T07:26:15;98006.41;;;19.37;66.07
75013;BME280;63567;49.956;20.130;2023-09-07T07:28:40;98006.13;;;19.45;66.47
75013;BME280;63567;49.956;20.130;2023-09-07T07:31:11;98004.78;;;19.55;66.36
75013;BME280;63567;49.956;20.130;2023-09-07T07:33:37;98000.16;;;19.62;66.49
75013;BME280;63567;49.956;20.130;2023-09-07T07:36:04;98008.53;;;19.72;66.57
75013;BME280;63567;49.956;20.130;2023-09-07T07:38:29;98001.25;;;19.79;66.22
75013;BME280;63567;49.956;20.130;2023-09-07T07:40:54;97996.66;;;19.86;66.27
75013;BME280;63567;49.956;20.130;2023-09-07T07:43:19;98002.25;;;19.97;66.41
75013;BME280;63567;49.956;20.130;2023-09-07T07:45:45;98010.59;;;20.07;66.58
75013;BME280;63567;49.956;20.130;2023-09-07T07:48:10;98010.88;;;20.17;66.55
75013;BME280;63567;49.956;20.130;2023-09-07T07:50:37;98014.66;;;20.28;66.02
75013;BME280;63567;49.956;20.130;2023-09-07T07:53:04;98009.31;;;20.40;65.81
75013;BME280;63567;49.956;20.130;2023-09-07T07:55:29;98011.22;;;20.51;66.30
75013;BME280;63567;49.956;20.130;2023-09-07T07:57:55;98014.56;;;20.65;66.27
75013;BME280;63567;49.956;20.130;2023-09-07T08:00:20;98015.66;;;20.76;66.39
75013;BME280;63567;49.956;20.130;2023-09-07T08:02:45;98016.47;;;20.88;66.00
75013;BME280;63567;49.956;20.130;2023-09-07T08:05:10;98015.44;;;21.01;66.12
75013;BME280;63567;49.956;20.130;2023-09-07T08:07:36;98009.88;;;21.14;65.97
75013;BME280;63567;49.956;20.130;2023-09-07T08:10:01;98012.31;;;21.27;65.77
75013;BME280;63567;49.956;20.130;2023-09-07T08:12:28;98013.94;;;21.40;65.37
75013;BME280;63567;49.956;20.130;2023-09-07T08:14:53;98008.63;;;21.52;65.18
75013;BME280;63567;49.956;20.130;2023-09-07T08:17:18;98014.91;;;21.69;65.84
75013;BME280;63567;49.956;20.130;2023-09-07T08:19:45;98010.91;;;21.84;65.47
75013;BME280;63567;49.956;20.130;2023-09-07T08:22:12;98016.34;;;22.01;65.54
75013;BME280;63567;49.956;20.130;2023-09-07T08:24:38;98016.91;;;22.14;64.78
75013;BME280;63567;49.956;20.130;2023-09-07T08:27:05;98016.16;;;22.31;65.12
75013;BME280;63567;49.956;20.130;2023-09-07T08:29:30;98009.22;;;22.47;64.79
75013;BME280;63567;49.956;20.130;2023-09-07T08:31:57;98015.44;;;22.64;65.06
75013;BME280;63567;49.956;20.130;2023-09-07T08:34:24;98007.66;;;22.80;64.96
75013;BME280;63567;49.956;20.130;2023-09-07T08:36:49;98014.41;;;22.99;64.71
75013;BME280;63567;49.956;20.130;2023-09-07T08:39:15;98018.19;;;23.15;63.79
75013;BME280;63567;49.956;20.130;2023-09-07T08:41:44;98019.56;;;23.34;63.14
75013;BME280;63567;49.956;20.130;2023-09-07T08:44:10;98022.22;;;23.51;62.98
75013;BME280;63567;49.956;20.130;2023-09-07T08:46:40;98013.63;;;23.71;63.27
75013;BME280;63567;49.956;20.130;2023-09-07T08:49:06;98016.53;;;23.87;63.29
75013;BME280;63567;49.956;20.130;2023-09-07T08:51:31;98017.09;;;24.11;63.39
75013;BME280;63567;49.956;20.130;2023-09-07T08:53:57;98020.03;;;24.31;63.02
75013;BME280;63567;49.956;20.130;2023-09-07T08:56:22;98016.75;;;24.51;62.10
75013;BME280;63567;49.956;20.130;2023-09-07T08:58:48;98018.59;;;24.73;59.77
75013;BME280;63567;49.956;20.130;2023-09-07T09:01:17;98021.16;;;24.90;59.06
75013;BME280;63567;49.956;20.130;2023-09-07T09:03:42;98025.13;;;25.14;59.90
75013;BME280;63567;49.956;20.130;2023-09-07T09:06:08;98026.94;;;25.36;59.80
75013;BME280;63567;49.956;20.130;2023-09-07T09:08:48;98021.97;;;25.60;59.78
75013;BME280;63567;49.956;20.130;2023-09-07T09:11:15;98023.69;;;25.81;58.48
75013;BME280;63567;49.956;20.130;2023-09-07T09:13:41;98016.53;;;26.02;58.00
75013;BME280;63567;49.956;20.130;2023-09-07T09:16:07;98023.91;;;26.22;57.12
75013;BME280;63567;49.956;20.130;2023-09-07T09:18:32;98019.34;;;26.43;57.46
75013;BME280;63567;49.956;20.130;2023-09-07T09:20:57;98025.66;;;26.64;56.77
75013;BME280;63567;49.956;20.130;2023-09-07T09:23:33;98019.19;;;26.86;56.38
75013;BME280;63567;49.956;20.130;2023-09-07T09:26:00;98024.59;;;27.07;55.55
75013;BME280;63567;49.956;20.130;2023-09-07T09:28:26;98024.88;;;27.25;53.75
75013;BME280;63567;49.956;20.130;2023-09-07T09:30:52;98014.56;;;27.43;52.91
75013;BME280;63567;49.956;20.130;2023-09-07T09:33:19;98019.97;;;27.63;52.31
75013;BME280;63567;49.956;20.130;2023-09-07T09:35:45;98021.25;;;27.81;53.34
75013;BME280;63567;49.956;20.130;2023-09-07T09:38:13;98023.41;;;28.00;53.52
75013;BME280;63567;49.956;20.130;2023-09-07T09:40:38;98014.09;;;28.16;52.38
75013;BME280;63567;49.956;20.130;2023-09-07T09:43:04;98010.47;;;28.36;52.57
75013;BME280;63567;49.956;20.130;2023-09-07T09:45:31;98021.22;;;28.57;52.30
75013;BME280;63567;49.956;20.130;2023-09-07T09:47:57;98014.03;;;28.76;52.31
75013;BME280;63567;49.956;20.130;2023-09-07T09:50:24;98025.03;;;28.95;52.68
75013;BME280;63567;49.956;20.130;2023-09-07T09:52:52;98017.53;;;29.16;51.88
75013;BME280;63567;49.956;20.130;2023-09-07T09:55:18;98020.88;;;29.37;51.35
75013;BME280;63567;49.956;20.130;2023-09-07T09:57:43;98022.56;;;29.57;48.99
75013;BME280;63567;49.956;20.130;2023-09-07T10:00:09;98018.56;;;29.79;49.07
75013;BME280;63567;49.956;20.130;2023-09-07T10:02:54;98014.75;;;30.04;48.03
75013;BME280;63567;49.956;20.130;2023-09-07T10:05:21;98024.75;;;30.27;47.44
75013;BME280;63567;49.956;20.130;2023-09-07T10:07:50;98013.94;;;30.46;46.18
75013;BME280;63567;49.956;20.130;2023-09-07T10:10:17;98018.19;;;30.71;46.31
75013;BME280;63567;49.956;20.130;2023-09-07T10:12:44;98016.47;;;30.95;44.88
75013;BME280;63567;49.956;20.130;2023-09-07T10:15:26;98021.22;;;31.22;43.40
75013;BME280;63567;49.956;20.130;2023-09-07T10:18:12;98017.84;;;31.44;41.66
75013;BME280;63567;49.956;20.130;2023-09-07T10:20:50;98014.25;;;31.62;40.09
75013;BME280;63567;49.956;20.130;2023-09-07T10:23:16;98003.06;;;31.78;40.25
75013;BME280;63567;49.956;20.130;2023-09-07T10:25:41;98011.94;;;31.97;40.82
75013;BME280;63567;49.956;20.130;2023-09-07T10:28:19;98009.31;;;32.20;42.01
75013;BME280;63567;49.956;20.130;2023-09-07T10:30:45;98014.31;;;32.40;40.92
75013;BME280;63567;49.956;20.130;2023-09-07T10:33:21;98010.34;;;32.60;37.94
75013;BME280;63567;49.956;20.130;2023-09-07T10:35:46;98006.13;;;32.77;37.25
75013;BME280;63567;49.956;20.130;2023-09-07T10:38:13;98000.63;;;32.90;37.21
75013;BME280;63567;49.956;20.130;2023-09-07T10:40:39;98006.22;;;33.08;38.02
75013;BME280;63567;49.956;20.130;2023-09-07T10:43:05;98004.59;;;33.29;37.36
75013;BME280;63567;49.956;20.130;2023-09-07T10:45:30;98011.25;;;33.46;36.01
75013;BME280;63567;49.956;20.130;2023-09-07T10:47:55;98002.16;;;33.59;35.64
75013;BME280;63567;49.956;20.130;2023-09-07T10:50:21;98004.47;;;33.74;35.66
75013;BME280;63567;49.956;20.130;2023-09-07T10:52:46;97999.09;;;33.92;35.92
75013;BME280;63567;49.956;20.130;2023-09-07T10:55:11;98002.16;;;34.08;36.03
75013;BME280;63567;49.956;20.130;2023-09-07T10:57:44;98001.44;;;34.25;35.65
75013;BME280;63567;49.956;20.130;2023-09-07T11:00:11;98001.44;;;34.42;36.05
75013;BME280;63567;49.956;20.130;2023-09-07T11:02:37;98003.06;;;34.61;35.65
75013;BME280;63567;49.956;20.130;2023-09-07T11:05:03;97997.13;;;34.76;34.48
75013;BME280;63567;49.956;20.130;2023-09-07T11:07:29;97991.13;;;34.91;34.41
75013;BME280;63567;49.956;20.130;2023-09-07T11:09:54;97989.03;;;35.06;34.13
75013;BME280;63567;49.956;20.130;2023-09-07T11:12:20;97992.06;;;35.22;34.23
75013;BME280;63567;49.956;20.130;2023-09-07T11:14:47;97986.88;;;35.37;33.81
75013;BME280;63567;49.956;20.130;2023-09-07T11:17:13;97991.00;;;35.52;33.36
75013;BME280;63567;49.956;20.130;2023-09-07T11:19:38;97982.28;;;35.68;33.27
75013;BME280;63567;49.956;20.130;2023-09-07T11:22:03;97989.56;;;35.85;32.89
75013;BME280;63567;49.956;20.130;2023-09-07T11:24:30;97986.47;;;35.95;32.26
75013;BME280;63567;49.956;20.130;2023-09-07T11:26:57;97997.53;;;36.07;31.78
75013;BME280;63567;49.956;20.130;2023-09-07T11:29:22;97990.88;;;36.17;31.88
75013;BME280;63567;49.956;20.130;2023-09-07T11:31:48;97995.97;;;36.27;31.58
75013;BME280;63567;49.956;20.130;2023-09-07T11:34:14;97999.44;;;36.36;31.68
75013;BME280;63567;49.956;20.130;2023-09-07T11:36:43;97995.16;;;36.48;31.03
75013;BME280;63567;49.956;20.130;2023-09-07T11:39:09;97986.84;;;36.56;31.19
75013;BME280;63567;49.956;20.130;2023-09-07T11:41:41;97985.34;;;36.68;31.39
75013;BME280;63567;49.956;20.130;2023-09-07T11:44:08;97988.50;;;36.78;31.10
75013;BME280;63567;49.956;20.130;2023-09-07T11:46:34;97982.56;;;36.89;30.33
75013;BME280;63567;49.956;20.130;2023-09-07T11:48:59;97984.41;;;36.97;30.58
75013;BME280;63567;49.956;20.130;2023-09-07T11:51:25;97978.81;;;37.06;29.96
75013;BME280;63567;49.956;20.130;2023-09-07T11:53:50;97977.28;;;37.17;30.17
75013;BME280;63567;49.956;20.130;2023-09-07T11:56:15;97976.50;;;37.29;30.44
75013;BME280;63567;49.956;20.130;2023-09-07T11:58:41;97989.47;;;37.40;29.31
75013;BME280;63567;49.956;20.130;2023-09-07T12:01:07;97988.09;;;37.47;29.31
75013;BME280;63567;49.956;20.130;2023-09-07T12:03:34;97988.81;;;37.56;29.50
75013;BME280;63567;49.956;20.130;2023-09-07T12:05:59;97983.56;;;37.63;29.20
75013;BME280;63567;49.956;20.130;2023-09-07T12:08:25;97981.97;;;37.74;29.37
75013;BME280;63567;49.956;20.130;2023-09-07T12:10:50;97984.25;;;37.85;29.03
75013;BME280;63567;49.956;20.130;2023-09-07T12:13:15;97997.06;;;37.93;29.04
75013;BME280;63567;49.956;20.130;2023-09-07T12:15:40;97985.94;;;38.01;29.22
75013;BME280;63567;49.956;20.130;2023-09-07T12:18:06;97982.63;;;38.08;28.73
75013;BME280;63567;49.956;20.130;2023-09-07T12:20:32;97975.84;;;38.18;28.57
75013;BME280;63567;49.956;20.130;2023-09-07T12:22:59;97979.28;;;38.27;28.54
75013;BME280;63567;49.956;20.130;2023-09-07T12:25:25;97965.81;;;38.38;27.46
75013;BME280;63567;49.956;20.130;2023-09-07T12:27:50;97969.22;;;38.47;27.27
75013;BME280;63567;49.956;20.130;2023-09-07T12:30:15;97974.53;;;38.52;27.21
75013;BME280;63567;49.956;20.130;2023-09-07T12:32:43;97973.94;;;38.59;28.10
75013;BME280;63567;49.956;20.130;2023-09-07T12:35:08;97973.84;;;38.71;27.57
75013;BME280;63567;49.956;20.130;2023-09-07T12:37:37;97968.22;;;38.80;27.31
75013;BME280;63567;49.956;20.130;2023-09-07T12:40:03;97971.50;;;38.86;27.39
75013;BME280;63567;49.956;20.130;2023-09-07T12:42:45;97960.66;;;38.93;27.02
75013;BME280;63567;49.956;20.130;2023-09-07T12:45:12;97968.34;;;38.99;27.00